sensor_id;sensor_type;location;lat;lon;timestamp;temperature;humidity
64143;DHT22;50437;51.970;5.904;2023-02-26T00:01:02;0.70;99.90
64143;DHT22;50437;51.970;5.904;2023-02-26T00:03:28;0.60;99.90
64143;DHT22;50437;51.970;5.904;2023-02-26T00:05:59;0.70;99.90
64143;DHT22;50437;51.970;5.904;2023-02-26T00:08:29;0.60;99.90
64143;DHT22;50437;51.970;5.904;2023-02-26T00:10:57;0.60;99.90
64143;DHT22;50437;51.970;5.904;2023-02-26T00:13:23;0.60;99.90
64143;DHT22;50437;51.970;5.904;2023-02-26T00:15:53;0.50;99.90
64143;DHT22;50437;51.970;5.904;2023-02-26T00:18:21;0.50;99.90
64143;DHT22;50437;51.970;5.904;2023-02-26T00:20:47;0.60;99.90
64143;DHT22;50437;51.970;5.904;2023-02-26T00:23:14;0.50;99.90
64143;DHT22;50437;51.970;5.904;2023-02-26T00:25:40;0.50;99.90
64143;DHT22;50437;51.970;5.904;2023-02-26T00:28:08;0.40;99.90
64143;DHT22;50437;51.970;5.904;2023-02-26T00:30:34;0.50;99.90
64143;DHT22;50437;51.970;5.904;2023-02-26T00:33:01;0.50;99.90
64143;DHT22;50437;51.970;5.904;2023-02-26T00:35:30;0.40;99.90
64143;DHT22;50437;51.970;5.904;2023-02-26T00:38:06;0.40;99.90
64143;DHT22;50437;51.970;5.904;2023-02-26T00:40:48;0.50;99.90
64143;DHT22;50437;51.970;5.904;2023-02-26T00:43:18;0.50;99.90
64143;DHT22;50437;51.970;5.904;2023-02-26T00:46:37;0.40;99.90
64143;DHT22;50437;51.970;5.904;2023-02-26T00:51:48;0.40;99.90
64143;DHT22;50437;51.970;5.904;2023-02-26T00:54:24;0.40;99.90
64143;DHT22;50437;51.970;5.904;2023-02-26T00:56:52;0.30;99.90
64143;DHT22;50437;51.970;5.904;2023-02-26T00:59:20;0.40;99.90
64143;DHT22;50437;51.970;5.904;2023-02-26T01:01:47;0.30;99.90
64143;DHT22;50437;51.970;5.904;2023-02-26T01:04:15;0.30;99.90
64143;DHT22;50437;51.970;5.904;2023-02-26T01:06:46;0.30;99.90
64143;DHT22;50437;51.970;5.904;2023-02-26T01:09:31;0.30;99.90
64143;DHT22;50437;51.970;5.904;2023-02-26T01:12:02;0.30;99.90
64143;DHT22;50437;51.970;5.904;2023-02-26T01:14:29;0.30;99.90
64143;DHT22;50437;51.970;5.904;2023-02-26T01:22:27;0.40;99.90
64143;DHT22;50437;51.970;5.904;2023-02-26T01:25:11;0.40;99.90
64143;DHT22;50437;51.970;5.904;2023-02-26T01:27:40;0.40;99.90
64143;DHT22;50437;51.970;5.904;2023-02-26T01:30:07;0.40;99.90
64143;DHT22;50437;51.970;5.904;2023-02-26T01:32:43;0.40;99.90
64143;DHT22;50437;51.970;5.904;2023-02-26T01:38:06;0.40;99.90
64143;DHT22;50437;51.970;5.904;2023-02-26T01:41:06;0.30;99.90
64143;DHT22;50437;51.970;5.904;2023-02-26T01:44:25;0.30;99.90
64143;DHT22;50437;51.970;5.904;2023-02-26T01:47:03;0.30;99.90
64143;DHT22;50437;51.970;5.904;2023-02-26T01:49:33;0.20;99.90
64143;DHT22;50437;51.970;5.904;2023-02-26T01:54:46;0.10;99.90
64143;DHT22;50437;51.970;5.904;2023-02-26T01:57:17;0.20;99.90
64143;DHT22;50437;51.970;5.904;2023-02-26T01:59:47;0.10;99.90
64143;DHT22;50437;51.970;5.904;2023-02-26T02:02:20;0.10;99.90
64143;DHT22;50437;51.970;5.904;2023-02-26T02:04:48;0.10;99.90
64143;DHT22;50437;51.970;5.904;2023-02-26T02:07:15;0.10;99.90
64143;DHT22;50437;51.970;5.904;2023-02-26T02:09:41;0.10;99.90
64143;DHT22;50437;51.970;5.904;2023-02-26T02:12:22;0.10;99.90
64143;DHT22;50437;51.970;5.904;2023-02-26T02:15:10;0.00;99.90
64143;DHT22;50437;51.970;5.904;2023-02-26T02:17:55;-0.10;99.90
64143;DHT22;50437;51.970;5.904;2023-02-26T02:23:37;-0.10;99.90
64143;DHT22;50437;51.970;5.904;2023-02-26T02:35:08;-0.30;99.90
64143;DHT22;50437;51.970;5.904;2023-02-26T02:37:49;-0.30;99.90
64143;DHT22;50437;51.970;5.904;2023-02-26T02:40:24;-0.30;99.90
64143;DHT22;50437;51.970;5.904;2023-02-26T02:43:00;-0.30;99.90
64143;DHT22;50437;51.970;5.904;2023-02-26T02:48:04;-0.30;99.90
64143;DHT22;50437;51.970;5.904;2023-02-26T02:50:54;-0.40;99.90
64143;DHT22;50437;51.970;5.904;2023-02-26T02:53:26;-0.40;99.90
64143;DHT22;50437;51.970;5.904;2023-02-26T02:56:09;-0.40;99.90
64143;DHT22;50437;51.970;5.904;2023-02-26T02:58:51;-0.50;99.90
64143;DHT22;50437;51.970;5.904;2023-02-26T03:01:20;-0.50;99.90
64143;DHT22;50437;51.970;5.904;2023-02-26T03:04:01;-0.50;99.90
64143;DHT22;50437;51.970;5.904;2023-02-26T03:06:30;-0.50;99.90
64143;DHT22;50437;51.970;5.904;2023-02-26T03:08:57;-0.50;99.90
64143;DHT22;50437;51.970;5.904;2023-02-26T03:11:24;-0.60;99.90
64143;DHT22;50437;51.970;5.904;2023-02-26T03:13:54;-0.60;99.90
64143;DHT22;50437;51.970;5.904;2023-02-26T03:19:23;-0.60;99.90
64143;DHT22;50437;51.970;5.904;2023-02-26T03:22:06;-0.60;99.90
64143;DHT22;50437;51.970;5.904;2023-02-26T03:30:21;-0.70;99.90
64143;DHT22;50437;51.970;5.904;2023-02-26T03:35:43;-0.80;99.90
64143;DHT22;50437;51.970;5.904;2023-02-26T03:38:19;-0.70;99.90
64143;DHT22;50437;51.970;5.904;2023-02-26T03:40:56;-0.70;99.90
64143;DHT22;50437;51.970;5.904;2023-02-26T03:43:37;-0.80;99.90
64143;DHT22;50437;51.970;5.904;2023-02-26T03:46:12;-0.80;99.90
64143;DHT22;50437;51.970;5.904;2023-02-26T03:48:39;-0.90;99.90
64143;DHT22;50437;51.970;5.904;2023-02-26T03:51:09;-0.90;99.90
64143;DHT22;50437;51.970;5.904;2023-02-26T03:54:08;-0.80;99.90
64143;DHT22;50437;51.970;5.904;2023-02-26T03:56:44;-0.80;99.90
64143;DHT22;50437;51.970;5.904;2023-02-26T03:59:12;-0.90;99.90
64143;DHT22;50437;51.970;5.904;2023-02-26T04:01:50;-0.90;99.90
64143;DHT22;50437;51.970;5.904;2023-02-26T04:04:24;-0.90;99.90
64143;DHT22;50437;51.970;5.904;2023-02-26T04:06:53;-0.90;99.90
64143;DHT22;50437;51.970;5.904;2023-02-26T04:09:23;-0.90;99.90
64143;DHT22;50437;51.970;5.904;2023-02-26T04:11:52;-1.00;99.90
64143;DHT22;50437;51.970;5.904;2023-02-26T04:14:18;-1.00;99.90
64143;DHT22;50437;51.970;5.904;2023-02-26T04:16:47;-1.00;99.90
64143;DHT22;50437;51.970;5.904;2023-02-26T04:19:14;-0.90;99.90
64143;DHT22;50437;51.970;5.904;2023-02-26T04:21:41;-1.00;99.90
64143;DHT22;50437;51.970;5.904;2023-02-26T04:24:08;-0.90;99.90
64143;DHT22;50437;51.970;5.904;2023-02-26T04:26:35;-0.90;99.90
64143;DHT22;50437;51.970;5.904;2023-02-26T04:29:01;-1.00;99.90
64143;DHT22;50437;51.970;5.904;2023-02-26T04:31:27;-0.90;99.90
64143;DHT22;50437;51.970;5.904;2023-02-26T04:33:53;-1.00;99.90
64143;DHT22;50437;51.970;5.904;2023-02-26T04:36:20;-1.00;99.90
64143;DHT22;50437;51.970;5.904;2023-02-26T04:38:47;-1.00;99.90
64143;DHT22;50437;51.970;5.904;2023-02-26T04:41:16;-1.10;99.90
64143;DHT22;50437;51.970;5.904;2023-02-26T04:43:44;-1.00;99.90
64143;DHT22;50437;51.970;5.904;2023-02-26T04:46:24;-1.10;99.90
64143;DHT22;50437;51.970;5.904;2023-02-26T04:48:50;-1.10;99.90
64143;DHT22;50437;51.970;5.904;2023-02-26T04:51:17;-1.10;99.90
64143;DHT22;50437;51.970;5.904;2023-02-26T04:53:43;-1.10;99.90
64143;DHT22;50437;51.970;5.904;2023-02-26T04:56:10;-1.10;99.90
64143;DHT22;50437;51.970;5.904;2023-02-26T04:58:39;-1.10;99.90
64143;DHT22;50437;51.970;5.904;2023-02-26T05:01:09;-1.10;99.90
64143;DHT22;50437;51.970;5.904;2023-02-26T05:03:38;-1.10;99.90
64143;DHT22;50437;51.970;5.904;2023-02-26T05:06:06;-1.10;99.90
64143;DHT22;50437;51.970;5.904;2023-02-26T05:08:33;-1.10;99.90
64143;DHT22;50437;51.970;5.904;2023-02-26T05:10:59;-1.00;99.90
64143;DHT22;50437;51.970;5.904;2023-02-26T05:13:25;-1.00;99.90
64143;DHT22;50437;51.970;5.904;2023-02-26T05:15:53;-1.00;99.90
64143;DHT22;50437;51.970;5.904;2023-02-26T05:18:20;-1.10;99.90
64143;DHT22;50437;51.970;5.904;2023-02-26T05:20:51;-1.00;99.90
64143;DHT22;50437;51.970;5.904;2023-02-26T05:23:18;-1.00;99.90
64143;DHT22;50437;51.970;5.904;2023-02-26T05:25:44;-1.10;99.90
64143;DHT22;50437;51.970;5.904;2023-02-26T05:28:10;-1.10;99.90
64143;DHT22;50437;51.970;5.904;2023-02-26T05:30:36;-1.10;99.90
64143;DHT22;50437;51.970;5.904;2023-02-26T05:33:02;-1.10;99.90
64143;DHT22;50437;51.970;5.904;2023-02-26T05:35:28;-1.20;99.90
64143;DHT22;50437;51.970;5.904;2023-02-26T05:37:55;-1.10;99.90
64143;DHT22;50437;51.970;5.904;2023-02-26T05:40:21;-1.10;99.90
64143;DHT22;50437;51.970;5.904;2023-02-26T05:42:47;-1.20;99.90
64143;DHT22;50437;51.970;5.904;2023-02-26T05:45:14;-1.20;99.90
64143;DHT22;50437;51.970;5.904;2023-02-26T05:47:40;-1.20;99.90
64143;DHT22;50437;51.970;5.904;2023-02-26T05:50:06;-1.20;99.90
64143;DHT22;50437;51.970;5.904;2023-02-26T05:52:33;-1.20;99.90
64143;DHT22;50437;51.970;5.904;2023-02-26T05:54:59;-1.20;99.90
64143;DHT22;50437;51.970;5.904;2023-02-26T05:57:26;-1.30;99.90
64143;DHT22;50437;51.970;5.904;2023-02-26T05:59:52;-1.30;99.90
64143;DHT22;50437;51.970;5.904;2023-02-26T06:02:18;-1.30;99.90
64143;DHT22;50437;51.970;5.904;2023-02-26T06:04:45;-1.30;99.90
64143;DHT22;50437;51.970;5.904;2023-02-26T06:07:11;-1.30;99.90
64143;DHT22;50437;51.970;5.904;2023-02-26T06:09:38;-1.30;99.90
64143;DHT22;50437;51.970;5.904;2023-02-26T06:12:04;-1.30;99.90
64143;DHT22;50437;51.970;5.904;2023-02-26T06:14:31;-1.30;99.90
64143;DHT22;50437;51.970;5.904;2023-02-26T06:16:58;-1.20;99.90
64143;DHT22;50437;51.970;5.904;2023-02-26T06:19:24;-1.30;99.90
64143;DHT22;50437;51.970;5.904;2023-02-26T06:21:50;-1.30;99.90
64143;DHT22;50437;51.970;5.904;2023-02-26T06:24:16;-1.30;99.90
64143;DHT22;50437;51.970;5.904;2023-02-26T06:26:42;-1.30;99.90
64143;DHT22;50437;51.970;5.904;2023-02-26T06:29:08;-1.20;99.90
64143;DHT22;50437;51.970;5.904;2023-02-26T06:31:35;-1.30;99.90
64143;DHT22;50437;51.970;5.904;2023-02-26T06:34:01;-1.20;99.90
64143;DHT22;50437;51.970;5.904;2023-02-26T06:36:27;-1.20;99.90
64143;DHT22;50437;51.970;5.904;2023-02-26T06:38:54;-1.30;99.90
64143;DHT22;50437;51.970;5.904;2023-02-26T06:41:20;-1.20;99.90
64143;DHT22;50437;51.970;5.904;2023-02-26T06:43:46;-1.20;99.90
64143;DHT22;50437;51.970;5.904;2023-02-26T06:46:12;-1.20;99.90
64143;DHT22;50437;51.970;5.904;2023-02-26T06:48:38;-1.20;99.90
64143;DHT22;50437;51.970;5.904;2023-02-26T06:51:04;-1.10;99.90
64143;DHT22;50437;51.970;5.904;2023-02-26T06:53:30;-1.10;99.90
64143;DHT22;50437;51.970;5.904;2023-02-26T06:55:57;-1.10;99.90
64143;DHT22;50437;51.970;5.904;2023-02-26T06:58:23;-1.10;99.90
64143;DHT22;50437;51.970;5.904;2023-02-26T07:00:50;-1.00;99.90
64143;DHT22;50437;51.970;5.904;2023-02-26T07:03:18;-1.00;99.90
64143;DHT22;50437;51.970;5.904;2023-02-26T07:05:45;-1.00;99.90
64143;DHT22;50437;51.970;5.904;2023-02-26T07:08:12;-0.90;99.90
64143;DHT22;50437;51.970;5.904;2023-02-26T07:10:39;-0.90;99.90
64143;DHT22;50437;51.970;5.904;2023-02-26T07:13:05;-0.80;99.90
64143;DHT22;50437;51.970;5.904;2023-02-26T07:15:31;-0.80;99.90
64143;DHT22;50437;51.970;5.904;2023-02-26T07:18:00;-0.80;99.90
64143;DHT22;50437;51.970;5.904;2023-02-26T07:20:26;-0.70;99.90
64143;DHT22;50437;51.970;5.904;2023-02-26T07:22:56;-0.70;99.90
64143;DHT22;50437;51.970;5.904;2023-02-26T07:25:22;-0.70;99.90
64143;DHT22;50437;51.970;5.904;2023-02-26T07:27:49;-0.70;99.90
64143;DHT22;50437;51.970;5.904;2023-02-26T07:30:16;-0.60;99.90
64143;DHT22;50437;51.970;5.904;2023-02-26T07:32:43;-0.60;99.90
64143;DHT22;50437;51.970;5.904;2023-02-26T07:35:09;-0.50;99.90
64143;DHT22;50437;51.970;5.904;2023-02-26T07:37:36;-0.50;99.90
64143;DHT22;50437;51.970;5.904;2023-02-26T07:40:02;-0.50;99.90
64143;DHT22;50437;51.970;5.904;2023-02-26T07:42:28;-0.50;99.90
64143;DHT22;50437;51.970;5.904;2023-02-26T07:44:55;-0.40;99.90
64143;DHT22;50437;51.970;5.904;2023-02-26T07:47:21;-0.40;99.90
64143;DHT22;50437;51.970;5.904;2023-02-26T07:49:47;-0.40;99.90
64143;DHT22;50437;51.970;5.904;2023-02-26T07:52:13;-0.40;99.90
64143;DHT22;50437;51.970;5.904;2023-02-26T07:54:39;-0.40;99.90
64143;DHT22;50437;51.970;5.904;2023-02-26T07:57:05;-0.30;99.90
64143;DHT22;50437;51.970;5.904;2023-02-26T07:59:31;-0.30;99.90
64143;DHT22;50437;51.970;5.904;2023-02-26T08:01:58;-0.30;99.90
64143;DHT22;50437;51.970;5.904;2023-02-26T08:04:24;-0.30;99.90
64143;DHT22;50437;51.970;5.904;2023-02-26T08:06:50;-0.20;99.90
64143;DHT22;50437;51.970;5.904;2023-02-26T08:09:20;-0.20;99.90
64143;DHT22;50437;51.970;5.904;2023-02-26T08:11:46;-0.20;99.90
64143;DHT22;50437;51.970;5.904;2023-02-26T08:14:13;-0.10;99.90
64143;DHT22;50437;51.970;5.904;2023-02-26T08:16:39;-0.10;99.90
64143;DHT22;50437;51.970;5.904;2023-02-26T08:19:05;0.00;99.90
64143;DHT22;50437;51.970;5.904;2023-02-26T08:21:31;0.00;99.90
64143;DHT22;50437;51.970;5.904;2023-02-26T08:23:58;0.10;99.90
64143;DHT22;50437;51.970;5.904;2023-02-26T08:26:24;0.10;99.90
64143;DHT22;50437;51.970;5.904;2023-02-26T08:28:50;0.10;99.90
64143;DHT22;50437;51.970;5.904;2023-02-26T08:31:16;0.10;99.90
64143;DHT22;50437;51.970;5.904;2023-02-26T08:33:43;0.20;99.90
64143;DHT22;50437;51.970;5.904;2023-02-26T08:36:10;0.20;99.90
64143;DHT22;50437;51.970;5.904;2023-02-26T08:38:36;0.30;99.90
64143;DHT22;50437;51.970;5.904;2023-02-26T08:41:03;0.30;99.90
64143;DHT22;50437;51.970;5.904;2023-02-26T08:43:29;0.40;99.90
64143;DHT22;50437;51.970;5.904;2023-02-26T08:45:56;0.40;99.90
64143;DHT22;50437;51.970;5.904;2023-02-26T08:48:23;0.40;99.90
64143;DHT22;50437;51.970;5.904;2023-02-26T08:50:52;0.50;99.90
64143;DHT22;50437;51.970;5.904;2023-02-26T08:53:21;0.60;99.90
64143;DHT22;50437;51.970;5.904;2023-02-26T08:55:48;0.60;99.90
64143;DHT22;50437;51.970;5.904;2023-02-26T08:58:15;0.60;99.90
64143;DHT22;50437;51.970;5.904;2023-02-26T09:00:41;0.60;99.90
64143;DHT22;50437;51.970;5.904;2023-02-26T09:03:07;0.70;99.90
64143;DHT22;50437;51.970;5.904;2023-02-26T09:05:33;0.70;99.90
64143;DHT22;50437;51.970;5.904;2023-02-26T09:07:59;0.80;99.90
64143;DHT22;50437;51.970;5.904;2023-02-26T09:10:26;0.80;99.90
64143;DHT22;50437;51.970;5.904;2023-02-26T09:12:52;0.90;99.90
64143;DHT22;50437;51.970;5.904;2023-02-26T09:15:18;0.90;99.90
64143;DHT22;50437;51.970;5.904;2023-02-26T09:17:46;1.00;99.90
64143;DHT22;50437;51.970;5.904;2023-02-26T09:20:14;1.00;99.90
64143;DHT22;50437;51.970;5.904;2023-02-26T09:22:40;1.20;99.90
64143;DHT22;50437;51.970;5.904;2023-02-26T09:25:06;1.30;99.90
64143;DHT22;50437;51.970;5.904;2023-02-26T09:27:33;1.20;99.90
64143;DHT22;50437;51.970;5.904;2023-02-26T09:30:01;1.30;99.90
64143;DHT22;50437;51.970;5.904;2023-02-26T09:32:27;1.70;99.90
64143;DHT22;50437;51.970;5.904;2023-02-26T09:34:53;2.80;99.90
64143;DHT22;50437;51.970;5.904;2023-02-26T09:37:19;4.00;99.90
64143;DHT22;50437;51.970;5.904;2023-02-26T09:39:45;5.10;99.90
64143;DHT22;50437;51.970;5.904;2023-02-26T09:45:31;5.70;87.00
64143;DHT22;50437;51.970;5.904;2023-02-26T09:48:00;5.60;83.90
64143;DHT22;50437;51.970;5.904;2023-02-26T09:50:50;6.10;82.70
64143;DHT22;50437;51.970;5.904;2023-02-26T09:53:23;6.70;78.30
64143;DHT22;50437;51.970;5.904;2023-02-26T09:55:52;7.10;72.00
64143;DHT22;50437;51.970;5.904;2023-02-26T09:58:26;6.80;69.40
64143;DHT22;50437;51.970;5.904;2023-02-26T10:04:17;6.70;66.50
64143;DHT22;50437;51.970;5.904;2023-02-26T10:10:03;4.50;74.30
64143;DHT22;50437;51.970;5.904;2023-02-26T10:12:33;4.20;78.30
64143;DHT22;50437;51.970;5.904;2023-02-26T10:15:50;4.30;75.70
64143;DHT22;50437;51.970;5.904;2023-02-26T10:18:05;4.80;77.00
64143;DHT22;50437;51.970;5.904;2023-02-26T10:23:31;6.90;65.60
64143;DHT22;50437;51.970;5.904;2023-02-26T10:29:04;7.80;60.10
64143;DHT22;50437;51.970;5.904;2023-02-26T10:39:41;7.70;54.70
64143;DHT22;50437;51.970;5.904;2023-02-26T10:42:14;7.80;54.80
64143;DHT22;50437;51.970;5.904;2023-02-26T10:47:59;9.00;53.50
64143;DHT22;50437;51.970;5.904;2023-02-26T10:50:28;9.10;51.80
64143;DHT22;50437;51.970;5.904;2023-02-26T10:52:54;9.00;50.50
64143;DHT22;50437;51.970;5.904;2023-02-26T10:55:38;9.20;52.70
64143;DHT22;50437;51.970;5.904;2023-02-26T10:58:24;9.80;52.00
64143;DHT22;50437;51.970;5.904;2023-02-26T11:00:54;10.00;51.00
64143;DHT22;50437;51.970;5.904;2023-02-26T11:03:32;9.00;51.80
64143;DHT22;50437;51.970;5.904;2023-02-26T11:06:00;9.20;49.70
64143;DHT22;50437;51.970;5.904;2023-02-26T11:08:45;9.30;50.10
64143;DHT22;50437;51.970;5.904;2023-02-26T11:14:02;9.90;49.60
64143;DHT22;50437;51.970;5.904;2023-02-26T11:16:28;9.10;48.70
64143;DHT22;50437;51.970;5.904;2023-02-26T11:18:58;10.10;51.10
64143;DHT22;50437;51.970;5.904;2023-02-26T11:21:38;10.70;48.50
64143;DHT22;50437;51.970;5.904;2023-02-26T11:24:15;10.20;46.90
64143;DHT22;50437;51.970;5.904;2023-02-26T11:26:45;9.60;48.80
64143;DHT22;50437;51.970;5.904;2023-02-26T11:29:20;9.10;46.30
64143;DHT22;50437;51.970;5.904;2023-02-26T11:31:53;8.60;48.40
64143;DHT22;50437;51.970;5.904;2023-02-26T11:34:23;8.40;49.20
64143;DHT22;50437;51.970;5.904;2023-02-26T11:36:54;8.60;48.90
64143;DHT22;50437;51.970;5.904;2023-02-26T11:39:23;8.90;50.60
64143;DHT22;50437;51.970;5.904;2023-02-26T11:41:54;8.50;49.20
64143;DHT22;50437;51.970;5.904;2023-02-26T11:44:37;8.60;47.60
64143;DHT22;50437;51.970;5.904;2023-02-26T11:47:08;8.90;50.30
64143;DHT22;50437;51.970;5.904;2023-02-26T11:49:44;9.20;50.30
64143;DHT22;50437;51.970;5.904;2023-02-26T11:54:38;9.20;47.80
64143;DHT22;50437;51.970;5.904;2023-02-26T11:57:16;9.40;47.70
64143;DHT22;50437;51.970;5.904;2023-02-26T11:59:47;9.30;47.50
64143;DHT22;50437;51.970;5.904;2023-02-26T12:02:16;9.50;49.40
64143;DHT22;50437;51.970;5.904;2023-02-26T12:04:48;9.10;47.40
64143;DHT22;50437;51.970;5.904;2023-02-26T12:07:16;9.10;46.90
64143;DHT22;50437;51.970;5.904;2023-02-26T12:09:48;8.80;46.80
64143;DHT22;50437;51.970;5.904;2023-02-26T12:15:27;8.90;48.30
64143;DHT22;50437;51.970;5.904;2023-02-26T12:20:39;8.80;50.20
64143;DHT22;50437;51.970;5.904;2023-02-26T12:25:49;8.80;49.40
64143;DHT22;50437;51.970;5.904;2023-02-26T12:31:24;8.90;48.40
64143;DHT22;50437;51.970;5.904;2023-02-26T12:36:58;7.70;49.60
64143;DHT22;50437;51.970;5.904;2023-02-26T12:42:22;7.80;50.50
64143;DHT22;50437;51.970;5.904;2023-02-26T12:58:43;7.60;50.40
64143;DHT22;50437;51.970;5.904;2023-02-26T13:12:02;7.40;52.60
64143;DHT22;50437;51.970;5.904;2023-02-26T13:17:49;7.30;49.70
64143;DHT22;50437;51.970;5.904;2023-02-26T13:20:26;7.30;52.20
64143;DHT22;50437;51.970;5.904;2023-02-26T13:22:57;7.40;51.40
64143;DHT22;50437;51.970;5.904;2023-02-26T13:25:43;7.10;53.30
64143;DHT22;50437;51.970;5.904;2023-02-26T13:28:35;7.30;55.70
64143;DHT22;50437;51.970;5.904;2023-02-26T13:31:22;7.40;54.60
64143;DHT22;50437;51.970;5.904;2023-02-26T13:33:51;7.30;53.00
64143;DHT22;50437;51.970;5.904;2023-02-26T13:36:20;7.50;52.60
64143;DHT22;50437;51.970;5.904;2023-02-26T13:39:20;7.40;54.00
64143;DHT22;50437;51.970;5.904;2023-02-26T13:48:00;7.40;54.00
64143;DHT22;50437;51.970;5.904;2023-02-26T13:53:33;7.60;52.30
64143;DHT22;50437;51.970;5.904;2023-02-26T13:56:41;7.50;53.30
64143;DHT22;50437;51.970;5.904;2023-02-26T14:06:57;7.00;52.70
64143;DHT22;50437;51.970;5.904;2023-02-26T14:11:58;7.20;53.90
64143;DHT22;50437;51.970;5.904;2023-02-26T14:20:25;6.80;50.80
64143;DHT22;50437;51.970;5.904;2023-02-26T14:25:40;6.80;54.50
64143;DHT22;50437;51.970;5.904;2023-02-26T14:28:33;6.90;53.20
64143;DHT22;50437;51.970;5.904;2023-02-26T14:33:31;6.90;55.00
64143;DHT22;50437;51.970;5.904;2023-02-26T14:36:22;6.80;53.90
64143;DHT22;50437;51.970;5.904;2023-02-26T14:38:53;6.70;54.20
64143;DHT22;50437;51.970;5.904;2023-02-26T14:41:27;6.70;53.90
64143;DHT22;50437;51.970;5.904;2023-02-26T14:44:12;6.70;55.60
64143;DHT22;50437;51.970;5.904;2023-02-26T14:46:40;6.80;55.60
64143;DHT22;50437;51.970;5.904;2023-02-26T14:49:17;6.90;54.60
64143;DHT22;50437;51.970;5.904;2023-02-26T14:54:53;6.80;55.40
64143;DHT22;50437;51.970;5.904;2023-02-26T15:00:19;6.70;55.40
64143;DHT22;50437;51.970;5.904;2023-02-26T15:15:57;6.90;55.70
64143;DHT22;50437;51.970;5.904;2023-02-26T15:21:40;6.80;55.30
64143;DHT22;50437;51.970;5.904;2023-02-26T15:24:11;6.80;55.40
64143;DHT22;50437;51.970;5.904;2023-02-26T15:26:53;6.60;55.90
64143;DHT22;50437;51.970;5.904;2023-02-26T15:29:24;6.50;55.30
64143;DHT22;50437;51.970;5.904;2023-02-26T15:31:58;6.60;56.80
64143;DHT22;50437;51.970;5.904;2023-02-26T15:34:26;6.50;56.40
64143;DHT22;50437;51.970;5.904;2023-02-26T15:36:53;6.50;54.60
64143;DHT22;50437;51.970;5.904;2023-02-26T15:39:22;6.40;54.80
64143;DHT22;50437;51.970;5.904;2023-02-26T15:41:56;6.40;54.80
64143;DHT22;50437;51.970;5.904;2023-02-26T15:44:29;6.40;55.60
64143;DHT22;50437;51.970;5.904;2023-02-26T15:46:58;6.40;56.00
64143;DHT22;50437;51.970;5.904;2023-02-26T15:49:37;6.40;56.90
64143;DHT22;50437;51.970;5.904;2023-02-26T15:52:06;6.50;57.10
64143;DHT22;50437;51.970;5.904;2023-02-26T15:54:42;6.50;57.30
64143;DHT22;50437;51.970;5.904;2023-02-26T15:57:13;6.40;56.80
64143;DHT22;50437;51.970;5.904;2023-02-26T15:59:46;6.30;56.20
64143;DHT22;50437;51.970;5.904;2023-02-26T16:02:17;6.30;57.60
64143;DHT22;50437;51.970;5.904;2023-02-26T16:04:44;6.40;56.70
64143;DHT22;50437;51.970;5.904;2023-02-26T16:07:12;6.50;56.30
64143;DHT22;50437;51.970;5.904;2023-02-26T16:09:43;6.30;59.00
64143;DHT22;50437;51.970;5.904;2023-02-26T16:12:15;6.30;59.60
64143;DHT22;50437;51.970;5.904;2023-02-26T16:14:50;6.00;58.90
64143;DHT22;50437;51.970;5.904;2023-02-26T16:17:42;5.90;59.00
64143;DHT22;50437;51.970;5.904;2023-02-26T16:20:16;5.80;59.90
64143;DHT22;50437;51.970;5.904;2023-02-26T16:23:04;5.70;60.90
64143;DHT22;50437;51.970;5.904;2023-02-26T16:25:40;5.50;59.80
64143;DHT22;50437;51.970;5.904;2023-02-26T16:28:15;5.40;61.40
64143;DHT22;50437;51.970;5.904;2023-02-26T16:30:51;5.30;60.50
64143;DHT22;50437;51.970;5.904;2023-02-26T16:33:22;5.20;60.60
64143;DHT22;50437;51.970;5.904;2023-02-26T16:36:11;5.00;60.60
64143;DHT22;50437;51.970;5.904;2023-02-26T16:38:51;5.00;61.40
64143;DHT22;50437;51.970;5.904;2023-02-26T16:41:23;4.90;63.60
64143;DHT22;50437;51.970;5.904;2023-02-26T16:43:56;4.90;62.80
64143;DHT22;50437;51.970;5.904;2023-02-26T16:46:43;4.90;63.50
64143;DHT22;50437;51.970;5.904;2023-02-26T16:49:34;4.80;63.70
64143;DHT22;50437;51.970;5.904;2023-02-26T16:52:02;4.70;63.80
64143;DHT22;50437;51.970;5.904;2023-02-26T16:54:41;4.70;64.40
64143;DHT22;50437;51.970;5.904;2023-02-26T16:57:16;4.70;64.70
64143;DHT22;50437;51.970;5.904;2023-02-26T16:59:47;4.50;66.50
64143;DHT22;50437;51.970;5.904;2023-02-26T17:02:35;4.50;66.30
64143;DHT22;50437;51.970;5.904;2023-02-26T17:05:20;4.40;67.50
64143;DHT22;50437;51.970;5.904;2023-02-26T17:07:51;4.50;67.50
64143;DHT22;50437;51.970;5.904;2023-02-26T17:10:23;4.40;68.10
64143;DHT22;50437;51.970;5.904;2023-02-26T17:12:51;4.30;71.20
64143;DHT22;50437;51.970;5.904;2023-02-26T17:15:31;4.20;71.80
64143;DHT22;50437;51.970;5.904;2023-02-26T17:17:59;4.20;71.60
64143;DHT22;50437;51.970;5.904;2023-02-26T17:20:27;4.30;72.10
64143;DHT22;50437;51.970;5.904;2023-02-26T17:22:55;4.20;73.50
64143;DHT22;50437;51.970;5.904;2023-02-26T17:25:21;4.20;72.80
64143;DHT22;50437;51.970;5.904;2023-02-26T17:27:50;4.10;74.00
64143;DHT22;50437;51.970;5.904;2023-02-26T17:30:26;4.10;73.80
64143;DHT22;50437;51.970;5.904;2023-02-26T17:32:56;4.10;76.30
64143;DHT22;50437;51.970;5.904;2023-02-26T17:35:23;4.00;77.40
64143;DHT22;50437;51.970;5.904;2023-02-26T17:37:49;4.00;80.00
64143;DHT22;50437;51.970;5.904;2023-02-26T17:40:28;4.00;82.40
64143;DHT22;50437;51.970;5.904;2023-02-26T17:42:56;3.90;85.40
64143;DHT22;50437;51.970;5.904;2023-02-26T17:45:26;3.80;88.50
64143;DHT22;50437;51.970;5.904;2023-02-26T17:47:55;3.90;90.20
64143;DHT22;50437;51.970;5.904;2023-02-26T17:50:45;3.90;92.00
64143;DHT22;50437;51.970;5.904;2023-02-26T17:53:14;3.80;92.80
64143;DHT22;50437;51.970;5.904;2023-02-26T17:55:40;3.80;93.90
64143;DHT22;50437;51.970;5.904;2023-02-26T18:00:40;3.80;96.60
64143;DHT22;50437;51.970;5.904;2023-02-26T18:03:09;3.70;97.20
64143;DHT22;50437;51.970;5.904;2023-02-26T18:05:35;3.70;96.70
64143;DHT22;50437;51.970;5.904;2023-02-26T18:08:06;3.70;98.20
64143;DHT22;50437;51.970;5.904;2023-02-26T18:10:32;3.60;99.50
64143;DHT22;50437;51.970;5.904;2023-02-26T18:12:58;3.50;99.10
64143;DHT22;50437;51.970;5.904;2023-02-26T18:15:26;3.50;99.60
64143;DHT22;50437;51.970;5.904;2023-02-26T18:17:52;3.40;99.90
64143;DHT22;50437;51.970;5.904;2023-02-26T18:20:20;3.40;99.90
64143;DHT22;50437;51.970;5.904;2023-02-26T18:22:51;3.40;99.90
64143;DHT22;50437;51.970;5.904;2023-02-26T18:25:25;3.30;99.90
64143;DHT22;50437;51.970;5.904;2023-02-26T18:27:55;3.30;99.90
64143;DHT22;50437;51.970;5.904;2023-02-26T18:30:29;3.20;99.90
64143;DHT22;50437;51.970;5.904;2023-02-26T18:32:55;3.10;99.90
64143;DHT22;50437;51.970;5.904;2023-02-26T18:35:25;3.10;99.90
64143;DHT22;50437;51.970;5.904;2023-02-26T18:38:00;3.00;99.90
64143;DHT22;50437;51.970;5.904;2023-02-26T18:40:27;2.90;99.90
64143;DHT22;50437;51.970;5.904;2023-02-26T18:42:54;2.90;99.90
64143;DHT22;50437;51.970;5.904;2023-02-26T18:45:20;2.90;99.90
64143;DHT22;50437;51.970;5.904;2023-02-26T18:47:47;2.90;99.90
64143;DHT22;50437;51.970;5.904;2023-02-26T18:50:14;2.90;99.90
64143;DHT22;50437;51.970;5.904;2023-02-26T18:52:41;2.80;99.90
64143;DHT22;50437;51.970;5.904;2023-02-26T18:55:09;2.80;99.90
64143;DHT22;50437;51.970;5.904;2023-02-26T18:57:39;2.80;99.90